Airfield :
LOGIN :

Register | Disclaimer

   EN    FR    IT 

 










Legend :    VFR   Marginal VFR   IFR   Intensive IFR   Very Intensive IFR
Visi :
Ceiling :
>= 8 km
>= 3000ft
5 to 8 km
1000 to 3000 ft
1500m to 5 km
500 to 1000 ft
800 to 1500m
200 to 500 ft
< 800m
< 200 ft
Symbols :   Thunderstorms  Fog  Heavy snow  Heavy precipitations  Wind > 20 kt
SIGMETs :     Misc.  Thunderstorms  Icing  Turbulence  Mountain Waves  Volcanic Ashes






- Airport Elevation : 37 ft


EHVL - Vlieland Heliport

CURRENT METAR :
  • 131155Z AUTO 28022KT 9999 SCT027 BKN034 BKN052 10/05 Q0996 BLU

EXPIRED METARs :
  • 131125Z AUTO 29019KT 9999 FEW025 SCT048 BKN058 10/06 Q0996 BLU
  • 131112Z AUTO 28022KT 9999 SCT023 SCT031 10/06 Q0996 WHT
  • 131055Z AUTO 29022KT 9999 NCD 10/05 Q0996 BLU
  • 131025Z AUTO 29022KT 9999 FEW025 10/06 Q0996 BLU
  • 130955Z AUTO 29024KT 9999 FEW022 10/06 Q0995 BLU
  • 130925Z AUTO 29022KT 9999 RA FEW018 SCT023 BKN032 09/06 Q0995 WHT

Expired Forecast.



MET'MAP, your aeronautical weather chart ! - Copyright ORBIFLY December 2007 - Disclaimer

ORBIFLY MET'MAP TEAM :

Programming & Development : Alexandra Zaïnal
Concept & Development : Baudouin d'Aumeries
Co-Development & Prog : Marc-Olivier Méhu
Technical & hardware support : Manuel Goepfert

Contact : metmap@orbifly.com




SOURCES & CREDITS :

   NOAA